sensor_id;sensor_type;location;lat;lon;timestamp;P1;durP1;ratioP1;P2;durP2;ratioP2
16272;SDS011;8244;50.044;9.006;2023-04-03T00:02:37;7.70;;;2.90;;
16272;SDS011;8244;50.044;9.006;2023-04-03T00:07:40;6.47;;;2.87;;
16272;SDS011;8244;50.044;9.006;2023-04-03T00:12:43;4.40;;;2.70;;
16272;SDS011;8244;50.044;9.006;2023-04-03T00:17:45;7.33;;;3.20;;
16272;SDS011;8244;50.044;9.006;2023-04-03T00:22:46;6.37;;;2.73;;
16272;SDS011;8244;50.044;9.006;2023-04-03T00:27:49;4.17;;;2.60;;
16272;SDS011;8244;50.044;9.006;2023-04-03T00:32:51;8.50;;;2.90;;
16272;SDS011;8244;50.044;9.006;2023-04-03T00:37:53;5.40;;;2.80;;
16272;SDS011;8244;50.044;9.006;2023-04-03T00:42:58;4.03;;;2.60;;
16272;SDS011;8244;50.044;9.006;2023-04-03T00:48:01;4.83;;;2.80;;
16272;SDS011;8244;50.044;9.006;2023-04-03T00:53:06;5.73;;;2.90;;
16272;SDS011;8244;50.044;9.006;2023-04-03T00:58:13;6.97;;;2.87;;
16272;SDS011;8244;50.044;9.006;2023-04-03T01:03:18;5.80;;;2.87;;
16272;SDS011;8244;50.044;9.006;2023-04-03T01:08:20;7.17;;;2.53;;
16272;SDS011;8244;50.044;9.006;2023-04-03T01:13:25;7.63;;;2.83;;
16272;SDS011;8244;50.044;9.006;2023-04-03T01:18:29;6.90;;;2.87;;
16272;SDS011;8244;50.044;9.006;2023-04-03T01:23:44;8.00;;;2.90;;
16272;SDS011;8244;50.044;9.006;2023-04-03T01:28:55;5.50;;;3.07;;
16272;SDS011;8244;50.044;9.006;2023-04-03T01:34:01;4.73;;;2.80;;
16272;SDS011;8244;50.044;9.006;2023-04-03T01:39:03;4.70;;;2.60;;
16272;SDS011;8244;50.044;9.006;2023-04-03T01:44:06;5.73;;;3.00;;
16272;SDS011;8244;50.044;9.006;2023-04-03T01:49:09;5.10;;;2.57;;
16272;SDS011;8244;50.044;9.006;2023-04-03T01:54:11;5.60;;;2.67;;
16272;SDS011;8244;50.044;9.006;2023-04-03T01:59:13;4.10;;;2.67;;
16272;SDS011;8244;50.044;9.006;2023-04-03T02:04:18;6.07;;;2.70;;
16272;SDS011;8244;50.044;9.006;2023-04-03T02:09:19;5.97;;;2.60;;
16272;SDS011;8244;50.044;9.006;2023-04-03T02:14:21;4.17;;;2.53;;
16272;SDS011;8244;50.044;9.006;2023-04-03T02:19:25;5.03;;;2.60;;
16272;SDS011;8244;50.044;9.006;2023-04-03T02:24:26;5.80;;;2.77;;
16272;SDS011;8244;50.044;9.006;2023-04-03T02:29:28;5.80;;;2.70;;
16272;SDS011;8244;50.044;9.006;2023-04-03T02:34:31;7.53;;;2.70;;
16272;SDS011;8244;50.044;9.006;2023-04-03T02:39:33;5.17;;;2.67;;
16272;SDS011;8244;50.044;9.006;2023-04-03T02:44:35;4.67;;;2.57;;
16272;SDS011;8244;50.044;9.006;2023-04-03T02:49:38;4.37;;;2.70;;
16272;SDS011;8244;50.044;9.006;2023-04-03T02:54:40;6.37;;;2.43;;
16272;SDS011;8244;50.044;9.006;2023-04-03T02:59:42;4.60;;;2.70;;
16272;SDS011;8244;50.044;9.006;2023-04-03T03:04:45;6.77;;;2.67;;
16272;SDS011;8244;50.044;9.006;2023-04-03T03:09:47;5.50;;;2.50;;
16272;SDS011;8244;50.044;9.006;2023-04-03T03:14:49;8.90;;;2.43;;
16272;SDS011;8244;50.044;9.006;2023-04-03T03:19:51;5.67;;;2.40;;
16272;SDS011;8244;50.044;9.006;2023-04-03T03:24:53;5.33;;;2.37;;
16272;SDS011;8244;50.044;9.006;2023-04-03T03:29:55;7.97;;;2.63;;
16272;SDS011;8244;50.044;9.006;2023-04-03T03:34:58;7.17;;;2.43;;
16272;SDS011;8244;50.044;9.006;2023-04-03T03:40:00;4.77;;;2.57;;
16272;SDS011;8244;50.044;9.006;2023-04-03T03:45:02;6.40;;;2.30;;
16272;SDS011;8244;50.044;9.006;2023-04-03T03:50:06;6.67;;;2.67;;
16272;SDS011;8244;50.044;9.006;2023-04-03T03:55:08;6.47;;;2.47;;
16272;SDS011;8244;50.044;9.006;2023-04-03T04:00:10;8.43;;;2.10;;
16272;SDS011;8244;50.044;9.006;2023-04-03T04:05:14;6.90;;;1.90;;
16272;SDS011;8244;50.044;9.006;2023-04-03T04:10:15;7.97;;;2.40;;
16272;SDS011;8244;50.044;9.006;2023-04-03T04:15:17;4.83;;;1.93;;
16272;SDS011;8244;50.044;9.006;2023-04-03T04:20:23;5.93;;;2.10;;
16272;SDS011;8244;50.044;9.006;2023-04-03T04:25:24;5.90;;;1.90;;
16272;SDS011;8244;50.044;9.006;2023-04-03T04:30:26;6.60;;;2.10;;
16272;SDS011;8244;50.044;9.006;2023-04-03T04:35:29;5.53;;;1.80;;
16272;SDS011;8244;50.044;9.006;2023-04-03T04:40:31;7.73;;;1.93;;
16272;SDS011;8244;50.044;9.006;2023-04-03T04:45:33;7.27;;;2.40;;
16272;SDS011;8244;50.044;9.006;2023-04-03T04:50:36;10.43;;;2.20;;
16272;SDS011;8244;50.044;9.006;2023-04-03T04:55:37;5.70;;;2.07;;
16272;SDS011;8244;50.044;9.006;2023-04-03T05:00:39;7.30;;;2.20;;
16272;SDS011;8244;50.044;9.006;2023-04-03T05:05:45;5.53;;;1.90;;
16272;SDS011;8244;50.044;9.006;2023-04-03T05:10:47;7.07;;;2.40;;
16272;SDS011;8244;50.044;9.006;2023-04-03T05:15:48;6.47;;;2.47;;
16272;SDS011;8244;50.044;9.006;2023-04-03T05:20:51;5.53;;;2.00;;
16272;SDS011;8244;50.044;9.006;2023-04-03T05:25:53;4.10;;;2.00;;
16272;SDS011;8244;50.044;9.006;2023-04-03T05:30:55;4.57;;;2.13;;
16272;SDS011;8244;50.044;9.006;2023-04-03T05:36:03;9.93;;;2.50;;
16272;SDS011;8244;50.044;9.006;2023-04-03T05:41:05;6.50;;;2.47;;
16272;SDS011;8244;50.044;9.006;2023-04-03T05:46:09;9.17;;;3.03;;
16272;SDS011;8244;50.044;9.006;2023-04-03T05:51:15;6.83;;;1.87;;
16272;SDS011;8244;50.044;9.006;2023-04-03T05:56:18;6.93;;;2.10;;
16272;SDS011;8244;50.044;9.006;2023-04-03T06:01:20;7.15;;;2.20;;
16272;SDS011;8244;50.044;9.006;2023-04-03T06:06:23;10.95;;;2.45;;
16272;SDS011;8244;50.044;9.006;2023-04-03T06:11:25;5.65;;;2.50;;
16272;SDS011;8244;50.044;9.006;2023-04-03T06:16:26;5.65;;;2.47;;
16272;SDS011;8244;50.044;9.006;2023-04-03T06:21:30;7.97;;;2.40;;
16272;SDS011;8244;50.044;9.006;2023-04-03T06:26:31;7.60;;;2.42;;
16272;SDS011;8244;50.044;9.006;2023-04-03T06:31:33;6.65;;;2.40;;
16272;SDS011;8244;50.044;9.006;2023-04-03T06:36:37;8.43;;;2.13;;
16272;SDS011;8244;50.044;9.006;2023-04-03T06:41:39;6.93;;;2.33;;
16272;SDS011;8244;50.044;9.006;2023-04-03T06:46:41;7.00;;;2.85;;
16272;SDS011;8244;50.044;9.006;2023-04-03T06:51:44;8.38;;;2.50;;
16272;SDS011;8244;50.044;9.006;2023-04-03T06:56:46;8.88;;;3.17;;
16272;SDS011;8244;50.044;9.006;2023-04-03T07:01:48;7.43;;;2.30;;
16272;SDS011;8244;50.044;9.006;2023-04-03T07:06:51;6.35;;;2.50;;
16272;SDS011;8244;50.044;9.006;2023-04-03T07:11:52;7.68;;;2.35;;
16272;SDS011;8244;50.044;9.006;2023-04-03T07:16:54;6.55;;;2.65;;
16272;SDS011;8244;50.044;9.006;2023-04-03T07:21:57;8.50;;;2.40;;
16272;SDS011;8244;50.044;9.006;2023-04-03T07:26:59;6.80;;;2.42;;
16272;SDS011;8244;50.044;9.006;2023-04-03T07:32:02;5.90;;;2.45;;
16272;SDS011;8244;50.044;9.006;2023-04-03T07:37:05;5.78;;;2.85;;
16272;SDS011;8244;50.044;9.006;2023-04-03T07:42:09;6.07;;;2.55;;
16272;SDS011;8244;50.044;9.006;2023-04-03T07:47:10;6.15;;;2.30;;
16272;SDS011;8244;50.044;9.006;2023-04-03T07:52:15;5.15;;;2.33;;
16272;SDS011;8244;50.044;9.006;2023-04-03T07:57:17;6.35;;;2.17;;
16272;SDS011;8244;50.044;9.006;2023-04-03T08:02:18;3.85;;;1.98;;
16272;SDS011;8244;50.044;9.006;2023-04-03T08:07:21;6.30;;;2.30;;
16272;SDS011;8244;50.044;9.006;2023-04-03T08:12:23;8.80;;;2.38;;
16272;SDS011;8244;50.044;9.006;2023-04-03T08:17:25;6.20;;;2.28;;
16272;SDS011;8244;50.044;9.006;2023-04-03T08:22:28;5.90;;;2.13;;
16272;SDS011;8244;50.044;9.006;2023-04-03T08:27:30;5.93;;;2.08;;
16272;SDS011;8244;50.044;9.006;2023-04-03T08:32:32;4.72;;;2.17;;
16272;SDS011;8244;50.044;9.006;2023-04-03T08:37:37;5.57;;;2.25;;
16272;SDS011;8244;50.044;9.006;2023-04-03T08:42:41;5.63;;;2.20;;
16272;SDS011;8244;50.044;9.006;2023-04-03T08:47:52;6.93;;;2.38;;
16272;SDS011;8244;50.044;9.006;2023-04-03T08:53:02;5.32;;;2.30;;
16272;SDS011;8244;50.044;9.006;2023-04-03T08:58:09;6.28;;;1.88;;
16272;SDS011;8244;50.044;9.006;2023-04-03T09:03:14;6.47;;;2.10;;
16272;SDS011;8244;50.044;9.006;2023-04-03T09:08:28;4.88;;;2.15;;
16272;SDS011;8244;50.044;9.006;2023-04-03T09:13:32;5.38;;;2.00;;
16272;SDS011;8244;50.044;9.006;2023-04-03T09:18:43;4.22;;;1.77;;
16272;SDS011;8244;50.044;9.006;2023-04-03T09:23:51;6.13;;;2.20;;
16272;SDS011;8244;50.044;9.006;2023-04-03T09:28:55;7.00;;;2.28;;
16272;SDS011;8244;50.044;9.006;2023-04-03T09:34:02;7.05;;;2.05;;
16272;SDS011;8244;50.044;9.006;2023-04-03T09:39:09;4.80;;;2.30;;
16272;SDS011;8244;50.044;9.006;2023-04-03T09:44:20;6.30;;;2.08;;
16272;SDS011;8244;50.044;9.006;2023-04-03T10:04:24;5.28;;;2.25;;
16272;SDS011;8244;50.044;9.006;2023-04-03T10:09:27;5.25;;;2.38;;
16272;SDS011;8244;50.044;9.006;2023-04-03T10:19:39;5.32;;;2.17;;
16272;SDS011;8244;50.044;9.006;2023-04-03T10:24:48;5.28;;;2.25;;
16272;SDS011;8244;50.044;9.006;2023-04-03T10:31:05;4.68;;;2.25;;
16272;SDS011;8244;50.044;9.006;2023-04-03T10:36:27;4.78;;;2.10;;
16272;SDS011;8244;50.044;9.006;2023-04-03T10:41:40;4.00;;;2.10;;
16272;SDS011;8244;50.044;9.006;2023-04-03T10:46:52;5.50;;;1.98;;
16272;SDS011;8244;50.044;9.006;2023-04-03T10:52:01;4.88;;;2.10;;
16272;SDS011;8244;50.044;9.006;2023-04-03T10:57:11;5.50;;;2.10;;
16272;SDS011;8244;50.044;9.006;2023-04-03T11:02:14;5.72;;;1.90;;
16272;SDS011;8244;50.044;9.006;2023-04-03T11:07:26;4.28;;;2.10;;
16272;SDS011;8244;50.044;9.006;2023-04-03T11:12:33;5.20;;;1.80;;
16272;SDS011;8244;50.044;9.006;2023-04-03T11:17:43;3.47;;;1.70;;
16272;SDS011;8244;50.044;9.006;2023-04-03T11:22:53;4.80;;;1.80;;
16272;SDS011;8244;50.044;9.006;2023-04-03T11:28:00;1.95;;;1.52;;
16272;SDS011;8244;50.044;9.006;2023-04-03T11:38:35;3.25;;;2.00;;
16272;SDS011;8244;50.044;9.006;2023-04-03T11:43:41;3.10;;;1.75;;
16272;SDS011;8244;50.044;9.006;2023-04-03T11:48:56;2.55;;;1.73;;
16272;SDS011;8244;50.044;9.006;2023-04-03T11:54:05;4.40;;;1.70;;
16272;SDS011;8244;50.044;9.006;2023-04-03T11:59:58;3.67;;;1.65;;
16272;SDS011;8244;50.044;9.006;2023-04-03T12:10:27;3.88;;;1.90;;
16272;SDS011;8244;50.044;9.006;2023-04-03T12:15:43;2.25;;;1.88;;
16272;SDS011;8244;50.044;9.006;2023-04-03T12:20:54;3.05;;;1.60;;
16272;SDS011;8244;50.044;9.006;2023-04-03T12:26:06;2.08;;;1.70;;
16272;SDS011;8244;50.044;9.006;2023-04-03T12:31:25;3.85;;;1.90;;
16272;SDS011;8244;50.044;9.006;2023-04-03T12:36:42;4.18;;;2.03;;
16272;SDS011;8244;50.044;9.006;2023-04-03T12:41:54;5.07;;;2.00;;
16272;SDS011;8244;50.044;9.006;2023-04-03T12:47:06;4.10;;;1.95;;
16272;SDS011;8244;50.044;9.006;2023-04-03T12:52:23;3.65;;;2.00;;
16272;SDS011;8244;50.044;9.006;2023-04-03T12:57:34;4.22;;;1.70;;
16272;SDS011;8244;50.044;9.006;2023-04-03T13:02:36;3.30;;;1.88;;
16272;SDS011;8244;50.044;9.006;2023-04-03T13:07:38;4.47;;;2.22;;
16272;SDS011;8244;50.044;9.006;2023-04-03T13:12:47;4.25;;;2.00;;
16272;SDS011;8244;50.044;9.006;2023-04-03T13:17:50;4.20;;;1.80;;
16272;SDS011;8244;50.044;9.006;2023-04-03T13:22:57;3.70;;;2.00;;
16272;SDS011;8244;50.044;9.006;2023-04-03T13:28:05;4.22;;;2.20;;
16272;SDS011;8244;50.044;9.006;2023-04-03T13:33:19;4.87;;;2.30;;
16272;SDS011;8244;50.044;9.006;2023-04-03T13:38:24;4.80;;;2.45;;
16272;SDS011;8244;50.044;9.006;2023-04-03T13:43:29;4.45;;;2.30;;
16272;SDS011;8244;50.044;9.006;2023-04-03T13:48:39;5.53;;;2.40;;
16272;SDS011;8244;50.044;9.006;2023-04-03T13:53:44;5.68;;;2.80;;
16272;SDS011;8244;50.044;9.006;2023-04-03T13:59:03;6.57;;;3.00;;
16272;SDS011;8244;50.044;9.006;2023-04-03T14:04:11;5.38;;;2.50;;
16272;SDS011;8244;50.044;9.006;2023-04-03T14:09:16;4.75;;;2.55;;
16272;SDS011;8244;50.044;9.006;2023-04-03T14:14:21;6.07;;;2.70;;
16272;SDS011;8244;50.044;9.006;2023-04-03T14:19:25;5.45;;;2.33;;
16272;SDS011;8244;50.044;9.006;2023-04-03T14:24:28;6.13;;;2.70;;
16272;SDS011;8244;50.044;9.006;2023-04-03T14:29:31;4.17;;;2.30;;
16272;SDS011;8244;50.044;9.006;2023-04-03T14:34:33;3.38;;;2.15;;
16272;SDS011;8244;50.044;9.006;2023-04-03T14:39:34;3.40;;;2.10;;
16272;SDS011;8244;50.044;9.006;2023-04-03T14:44:37;4.93;;;2.00;;
16272;SDS011;8244;50.044;9.006;2023-04-03T14:49:39;5.20;;;2.13;;
16272;SDS011;8244;50.044;9.006;2023-04-03T14:54:42;5.20;;;1.95;;
16272;SDS011;8244;50.044;9.006;2023-04-03T14:59:45;3.55;;;1.90;;
16272;SDS011;8244;50.044;9.006;2023-04-03T15:04:47;8.35;;;1.60;;
16272;SDS011;8244;50.044;9.006;2023-04-03T15:09:49;4.40;;;1.80;;
16272;SDS011;8244;50.044;9.006;2023-04-03T15:14:53;3.42;;;1.50;;
16272;SDS011;8244;50.044;9.006;2023-04-03T15:19:55;5.00;;;2.05;;
16272;SDS011;8244;50.044;9.006;2023-04-03T15:24:56;5.43;;;1.60;;
16272;SDS011;8244;50.044;9.006;2023-04-03T15:29:59;4.03;;;1.83;;
16272;SDS011;8244;50.044;9.006;2023-04-03T15:35:01;3.03;;;1.60;;
16272;SDS011;8244;50.044;9.006;2023-04-03T15:40:03;3.65;;;2.00;;
16272;SDS011;8244;50.044;9.006;2023-04-03T15:45:08;3.80;;;1.75;;
16272;SDS011;8244;50.044;9.006;2023-04-03T15:50:10;2.92;;;1.75;;
16272;SDS011;8244;50.044;9.006;2023-04-03T15:55:12;2.75;;;1.55;;
16272;SDS011;8244;50.044;9.006;2023-04-03T16:00:15;3.33;;;1.75;;
16272;SDS011;8244;50.044;9.006;2023-04-03T16:05:17;3.08;;;1.48;;
16272;SDS011;8244;50.044;9.006;2023-04-03T16:10:21;2.92;;;1.70;;
16272;SDS011;8244;50.044;9.006;2023-04-03T16:15:24;4.80;;;1.88;;
16272;SDS011;8244;50.044;9.006;2023-04-03T16:20:27;3.08;;;2.10;;
16272;SDS011;8244;50.044;9.006;2023-04-03T16:25:29;3.97;;;1.70;;
16272;SDS011;8244;50.044;9.006;2023-04-03T16:30:32;4.68;;;1.85;;
16272;SDS011;8244;50.044;9.006;2023-04-03T16:35:34;6.35;;;1.80;;
16272;SDS011;8244;50.044;9.006;2023-04-03T16:40:36;3.75;;;1.83;;
16272;SDS011;8244;50.044;9.006;2023-04-03T16:45:39;6.68;;;2.20;;
16272;SDS011;8244;50.044;9.006;2023-04-03T16:50:40;6.03;;;1.63;;
16272;SDS011;8244;50.044;9.006;2023-04-03T16:55:42;5.55;;;1.92;;
16272;SDS011;8244;50.044;9.006;2023-04-03T17:00:45;6.32;;;2.60;;
16272;SDS011;8244;50.044;9.006;2023-04-03T17:05:47;3.47;;;1.65;;
16272;SDS011;8244;50.044;9.006;2023-04-03T17:10:49;4.43;;;1.70;;
16272;SDS011;8244;50.044;9.006;2023-04-03T17:15:54;4.60;;;1.90;;
16272;SDS011;8244;50.044;9.006;2023-04-03T17:20:56;6.78;;;1.80;;
16272;SDS011;8244;50.044;9.006;2023-04-03T17:25:58;4.97;;;1.88;;
16272;SDS011;8244;50.044;9.006;2023-04-03T17:31:01;7.80;;;2.05;;
16272;SDS011;8244;50.044;9.006;2023-04-03T17:36:03;3.38;;;1.63;;
16272;SDS011;8244;50.044;9.006;2023-04-03T17:41:07;5.55;;;1.90;;
16272;SDS011;8244;50.044;9.006;2023-04-03T17:46:10;4.25;;;2.00;;
16272;SDS011;8244;50.044;9.006;2023-04-03T17:51:13;2.97;;;1.80;;
16272;SDS011;8244;50.044;9.006;2023-04-03T17:56:17;4.20;;;1.48;;
16272;SDS011;8244;50.044;9.006;2023-04-03T18:01:22;4.30;;;1.90;;
16272;SDS011;8244;50.044;9.006;2023-04-03T18:06:26;4.30;;;1.98;;
16272;SDS011;8244;50.044;9.006;2023-04-03T18:11:32;4.50;;;1.98;;
16272;SDS011;8244;50.044;9.006;2023-04-03T18:16:35;4.25;;;1.90;;
16272;SDS011;8244;50.044;9.006;2023-04-03T18:21:37;4.72;;;1.90;;
16272;SDS011;8244;50.044;9.006;2023-04-03T18:26:39;4.57;;;2.00;;
16272;SDS011;8244;50.044;9.006;2023-04-03T18:31:45;4.03;;;1.80;;
16272;SDS011;8244;50.044;9.006;2023-04-03T18:36:50;3.72;;;1.90;;
16272;SDS011;8244;50.044;9.006;2023-04-03T18:41:52;4.57;;;2.17;;
16272;SDS011;8244;50.044;9.006;2023-04-03T18:46:56;4.20;;;2.00;;
16272;SDS011;8244;50.044;9.006;2023-04-03T18:51:58;5.30;;;1.93;;
16272;SDS011;8244;50.044;9.006;2023-04-03T18:57:00;5.13;;;1.90;;
16272;SDS011;8244;50.044;9.006;2023-04-03T19:02:03;4.33;;;2.70;;
16272;SDS011;8244;50.044;9.006;2023-04-03T19:07:06;6.00;;;2.10;;
16272;SDS011;8244;50.044;9.006;2023-04-03T19:12:09;4.93;;;2.03;;
16272;SDS011;8244;50.044;9.006;2023-04-03T19:17:12;4.73;;;2.20;;
16272;SDS011;8244;50.044;9.006;2023-04-03T19:22:14;3.43;;;2.00;;
16272;SDS011;8244;50.044;9.006;2023-04-03T19:27:15;6.10;;;2.17;;
16272;SDS011;8244;50.044;9.006;2023-04-03T19:32:18;4.43;;;2.17;;
16272;SDS011;8244;50.044;9.006;2023-04-03T19:37:20;4.40;;;2.13;;
16272;SDS011;8244;50.044;9.006;2023-04-03T19:42:25;4.33;;;2.47;;
16272;SDS011;8244;50.044;9.006;2023-04-03T19:47:30;7.37;;;2.57;;
16272;SDS011;8244;50.044;9.006;2023-04-03T19:52:32;14.60;;;3.47;;
16272;SDS011;8244;50.044;9.006;2023-04-03T19:57:34;6.60;;;2.10;;
16272;SDS011;8244;50.044;9.006;2023-04-03T20:02:37;5.07;;;1.80;;
16272;SDS011;8244;50.044;9.006;2023-04-03T20:07:38;5.03;;;1.73;;
16272;SDS011;8244;50.044;9.006;2023-04-03T20:12:40;3.27;;;1.80;;
16272;SDS011;8244;50.044;9.006;2023-04-03T20:17:44;5.63;;;1.90;;
16272;SDS011;8244;50.044;9.006;2023-04-03T20:22:45;4.00;;;1.70;;
16272;SDS011;8244;50.044;9.006;2023-04-03T20:27:47;5.07;;;2.00;;
16272;SDS011;8244;50.044;9.006;2023-04-03T20:32:50;5.10;;;2.00;;
16272;SDS011;8244;50.044;9.006;2023-04-03T20:37:52;6.23;;;1.90;;
16272;SDS011;8244;50.044;9.006;2023-04-03T20:42:54;5.07;;;2.00;;
16272;SDS011;8244;50.044;9.006;2023-04-03T20:47:57;5.57;;;1.90;;
16272;SDS011;8244;50.044;9.006;2023-04-03T20:52:59;4.43;;;2.10;;
16272;SDS011;8244;50.044;9.006;2023-04-03T20:58:02;7.00;;;1.70;;
16272;SDS011;8244;50.044;9.006;2023-04-03T21:03:05;5.97;;;2.03;;
16272;SDS011;8244;50.044;9.006;2023-04-03T21:19:30;4.03;;;1.73;;
16272;SDS011;8244;50.044;9.006;2023-04-03T21:24:32;8.30;;;2.17;;
16272;SDS011;8244;50.044;9.006;2023-04-03T21:29:36;4.10;;;2.00;;
16272;SDS011;8244;50.044;9.006;2023-04-03T21:34:39;5.77;;;2.00;;
16272;SDS011;8244;50.044;9.006;2023-04-03T21:39:40;9.40;;;2.00;;
16272;SDS011;8244;50.044;9.006;2023-04-03T21:44:44;5.50;;;2.00;;
16272;SDS011;8244;50.044;9.006;2023-04-03T21:49:49;5.37;;;2.20;;
16272;SDS011;8244;50.044;9.006;2023-04-03T21:54:51;5.63;;;2.03;;
16272;SDS011;8244;50.044;9.006;2023-04-03T21:59:52;4.63;;;1.97;;
16272;SDS011;8244;50.044;9.006;2023-04-03T22:04:55;3.83;;;1.70;;
16272;SDS011;8244;50.044;9.006;2023-04-03T22:09:57;3.33;;;1.80;;
16272;SDS011;8244;50.044;9.006;2023-04-03T22:14:59;4.07;;;1.80;;
16272;SDS011;8244;50.044;9.006;2023-04-03T22:20:03;7.93;;;2.37;;
16272;SDS011;8244;50.044;9.006;2023-04-03T22:25:06;4.20;;;2.10;;
16272;SDS011;8244;50.044;9.006;2023-04-03T22:30:09;5.10;;;1.97;;
16272;SDS011;8244;50.044;9.006;2023-04-03T22:35:13;5.13;;;1.90;;
16272;SDS011;8244;50.044;9.006;2023-04-03T22:40:14;4.23;;;2.13;;
16272;SDS011;8244;50.044;9.006;2023-04-03T22:45:16;4.57;;;2.13;;
16272;SDS011;8244;50.044;9.006;2023-04-03T22:50:20;4.53;;;1.80;;
16272;SDS011;8244;50.044;9.006;2023-04-03T22:55:21;6.87;;;2.20;;
16272;SDS011;8244;50.044;9.006;2023-04-03T23:00:24;4.50;;;2.00;;
16272;SDS011;8244;50.044;9.006;2023-04-03T23:05:28;5.80;;;2.33;;
16272;SDS011;8244;50.044;9.006;2023-04-03T23:10:29;2.77;;;1.97;;
16272;SDS011;8244;50.044;9.006;2023-04-03T23:15:31;3.80;;;2.17;;
16272;SDS011;8244;50.044;9.006;2023-04-03T23:20:36;4.27;;;1.97;;
16272;SDS011;8244;50.044;9.006;2023-04-03T23:25:38;5.73;;;2.00;;
16272;SDS011;8244;50.044;9.006;2023-04-03T23:30:40;5.90;;;2.10;;
16272;SDS011;8244;50.044;9.006;2023-04-03T23:35:44;5.50;;;2.07;;
16272;SDS011;8244;50.044;9.006;2023-04-03T23:40:47;8.70;;;2.80;;
16272;SDS011;8244;50.044;9.006;2023-04-03T23:45:49;5.57;;;2.30;;
16272;SDS011;8244;50.044;9.006;2023-04-03T23:50:52;4.27;;;2.27;;
16272;SDS011;8244;50.044;9.006;2023-04-03T23:55:53;5.00;;;2.20;;
